Time;durP1;ratioP1;P1;durP2;ratioP2;P2;SDS_P1;SDS_P2;PMS_P1;PMS_P2;Temp;Humidity;BMP_temperature;BMP_pressure;BME280_temperature;BME280_humidity;BME280_pressure;Samples;Min_cycle;Max_cycle;Signal;HPM_P1;HPM_P2
2022/07/13 00:01:01;;;;;;;3.17;2.88;;;21.30;99.90;;;;;;4978370;28;20032;-75
2022/07/13 00:03:27;;;;;;;3.25;2.97;;;21.30;99.90;;;;;;4967038;28;20052;-75
2022/07/13 00:05:54;;;;;;;3.30;3.00;;;21.20;99.90;;;;;;4983664;28;20508;-75
2022/07/13 00:08:20;;;;;;;4.30;3.70;;;21.20;99.90;;;;;;4999489;28;20040;-75
2022/07/13 00:10:46;;;;;;;3.65;3.28;;;21.10;99.90;;;;;;4977008;28;20045;-75
2022/07/13 00:13:13;;;;;;;2.95;2.75;;;21.20;99.90;;;;;;4983024;28;20036;-75
2022/07/13 00:15:39;;;;;;;2.88;2.53;;;21.20;99.90;;;;;;4983006;28;20048;-75
2022/07/13 00:18:06;;;;;;;3.67;2.90;;;21.20;99.90;;;;;;4982257;28;20044;-75
2022/07/13 00:20:32;;;;;;;3.03;2.83;;;21.10;99.90;;;;;;4992807;28;20044;-75
2022/07/13 00:22:59;;;;;;;3.83;3.47;;;21.10;99.90;;;;;;4997651;28;20049;-75
2022/07/13 00:25:25;;;;;;;4.38;3.72;;;21.20;99.90;;;;;;4982521;28;21277;-75
2022/07/13 00:27:51;;;;;;;4.22;3.40;;;21.20;99.90;;;;;;4980792;28;20037;-81
2022/07/13 00:30:18;;;;;;;3.97;2.88;;;21.20;99.90;;;;;;4993816;28;20448;-81
2022/07/13 00:32:44;;;;;;;3.35;3.10;;;21.20;99.90;;;;;;4950863;28;20041;-81
2022/07/13 00:35:11;;;;;;;5.68;3.80;;;21.20;99.90;;;;;;4980874;28;20617;-81
2022/07/13 00:37:37;;;;;;;4.25;3.65;;;21.20;99.90;;;;;;4998401;28;20029;-81
2022/07/13 00:40:04;;;;;;;3.72;3.10;;;21.20;99.90;;;;;;4977222;28;20072;-80
2022/07/13 00:42:30;;;;;;;4.13;3.53;;;21.20;99.90;;;;;;4978259;28;20041;-80
2022/07/13 00:44:57;;;;;;;4.30;3.08;;;21.20;99.90;;;;;;5013619;28;20036;-80
2022/07/13 00:47:25;;;;;;;3.40;3.15;;;21.20;99.90;;;;;;4995398;28;20055;-81
2022/07/13 00:49:52;;;;;;;3.45;3.15;;;21.20;99.90;;;;;;4996272;28;20048;-81
2022/07/13 00:52:18;;;;;;;4.57;3.85;;;21.10;99.90;;;;;;4993702;28;21522;-80
2022/07/13 00:54:45;;;;;;;4.30;3.78;;;21.10;99.90;;;;;;4996910;28;20129;-80
2022/07/13 00:57:15;;;;;;;5.97;4.20;;;21.10;99.90;;;;;;4983498;28;20037;-82
2022/07/13 00:59:42;;;;;;;5.22;4.70;;;21.10;99.90;;;;;;4981461;28;20847;-81
2022/07/13 01:02:09;;;;;;;4.97;4.53;;;21.10;99.90;;;;;;4996917;28;20064;-81
2022/07/13 01:04:35;;;;;;;4.97;4.45;;;21.10;99.90;;;;;;5000886;28;20044;-80
2022/07/13 01:07:02;;;;;;;5.53;4.50;;;21.00;99.90;;;;;;5002009;28;20029;-82
2022/07/13 01:09:30;;;;;;;4.88;4.47;;;21.00;99.90;;;;;;5001657;28;20998;-80
2022/07/13 01:11:57;;;;;;;19.77;17.63;;;21.00;99.90;;;;;;4998157;28;20041;-81
2022/07/13 01:14:24;;;;;;;33.08;28.63;;;21.00;99.90;;;;;;4987495;28;20052;-80
2022/07/13 01:16:51;;;;;;;31.40;27.33;;;20.90;99.90;;;;;;5003997;28;20785;-81
2022/07/13 01:19:18;;;;;;;26.42;23.65;;;20.90;99.90;;;;;;5003217;28;20086;-81
2022/07/13 01:21:48;;;;;;;24.92;22.00;;;21.00;99.90;;;;;;4980551;28;20038;-81
2022/07/13 01:24:15;;;;;;;18.25;16.45;;;21.00;99.90;;;;;;4967998;28;20033;-81
2022/07/13 01:26:41;;;;;;;12.57;11.27;;;21.00;99.90;;;;;;5003083;28;20029;-80
2022/07/13 01:29:08;;;;;;;9.90;8.90;;;21.00;99.90;;;;;;5000568;28;20041;-81
2022/07/13 01:31:39;;;;;;;7.43;6.63;;;21.00;99.90;;;;;;5000663;28;20037;-81
2022/07/13 01:34:07;;;;;;;5.63;5.03;;;21.00;99.90;;;;;;4986428;28;20060;-81
2022/07/13 01:36:35;;;;;;;4.50;4.10;;;21.00;99.90;;;;;;4999575;28;20453;-81
2022/07/13 01:39:03;;;;;;;4.47;4.15;;;21.00;99.90;;;;;;4973814;28;20053;-81
2022/07/13 01:41:29;;;;;;;4.65;3.88;;;21.00;99.90;;;;;;4998554;28;20045;-81
2022/07/13 01:43:57;;;;;;;5.10;3.78;;;20.90;99.90;;;;;;4998986;28;20040;-82
2022/07/13 01:46:30;;;;;;;3.72;3.42;;;21.00;99.90;;;;;;4967718;28;20033;-82
2022/07/13 01:48:58;;;;;;;4.03;3.72;;;21.00;99.90;;;;;;4982857;28;20029;-81
2022/07/13 01:51:25;;;;;;;4.13;3.40;;;20.90;99.90;;;;;;4985600;28;20481;-82
2022/07/13 01:53:51;;;;;;;3.63;3.33;;;21.00;99.90;;;;;;4969875;28;20480;-82
2022/07/13 01:56:20;;;;;;;3.58;3.28;;;21.00;99.90;;;;;;4984917;28;20060;-81
2022/07/13 01:58:47;;;;;;;3.63;3.33;;;20.90;99.90;;;;;;4956263;28;20046;-75
2022/07/13 02:01:14;;;;;;;4.40;3.85;;;20.90;99.90;;;;;;4979523;28;20393;-75
2022/07/13 02:03:42;;;;;;;3.45;3.15;;;20.90;99.90;;;;;;4984247;28;20441;-81
2022/07/13 02:06:10;;;;;;;3.78;3.42;;;20.90;99.90;;;;;;4982888;28;20037;-75
2022/07/13 02:08:38;;;;;;;3.38;2.92;;;20.90;99.90;;;;;;4968369;28;20377;-75
2022/07/13 02:11:06;;;;;;;3.20;2.78;;;20.90;99.90;;;;;;4979055;28;20033;-75
2022/07/13 02:13:33;;;;;;;3.40;3.10;;;20.90;99.90;;;;;;4969714;28;20400;-75
2022/07/13 02:15:59;;;;;;;2.92;2.70;;;20.90;99.90;;;;;;4985750;28;20360;-76
2022/07/13 02:18:26;;;;;;;4.85;3.20;;;20.90;99.90;;;;;;5002270;28;20384;-75
2022/07/13 02:20:52;;;;;;;3.63;3.33;;;21.00;99.90;;;;;;4980064;28;20048;-82
2022/07/13 02:23:19;;;;;;;3.58;3.13;;;20.90;99.90;;;;;;4999980;28;20050;-82
2022/07/13 02:25:45;;;;;;;3.85;3.10;;;20.90;99.90;;;;;;4999036;28;20040;-81
2022/07/13 02:28:12;;;;;;;3.78;3.35;;;21.00;99.90;;;;;;5001302;28;20037;-81
2022/07/13 02:30:38;;;;;;;2.97;2.40;;;21.00;99.90;;;;;;4962394;28;20037;-80
2022/07/13 02:33:05;;;;;;;3.90;3.10;;;21.00;99.90;;;;;;4983389;28;20546;-80
2022/07/13 02:35:31;;;;;;;3.40;2.20;;;20.90;99.90;;;;;;4983059;28;20049;-80
2022/07/13 02:37:59;;;;;;;3.00;2.53;;;20.90;99.90;;;;;;4986166;28;20044;-81
2022/07/13 02:40:26;;;;;;;2.67;2.47;;;20.90;99.90;;;;;;4965653;28;20064;-81
2022/07/13 02:42:55;;;;;;;3.13;2.20;;;20.90;99.90;;;;;;5000078;28;20037;-81
2022/07/13 02:45:22;;;;;;;2.47;2.28;;;20.90;99.90;;;;;;4983591;28;20380;-80
2022/07/13 02:47:49;;;;;;;2.53;1.90;;;20.90;99.90;;;;;;4966227;28;20129;-75
2022/07/13 02:50:15;;;;;;;2.42;2.22;;;20.90;99.90;;;;;;4981537;28;20357;-75
2022/07/13 02:52:42;;;;;;;3.30;1.98;;;20.90;99.90;;;;;;5015430;28;20384;-74
2022/07/13 02:55:09;;;;;;;2.38;2.17;;;20.90;99.90;;;;;;5016833;28;20021;-75
2022/07/13 02:57:37;;;;;;;2.00;1.80;;;20.90;99.90;;;;;;5002475;28;20025;-81
2022/07/13 03:00:07;;;;;;;2.30;1.60;;;20.80;99.90;;;;;;5000393;28;20665;-81
2022/07/13 03:02:33;;;;;;;2.60;1.52;;;20.80;99.90;;;;;;4983680;28;20040;-80
2022/07/13 03:05:00;;;;;;;1.98;1.30;;;20.80;99.90;;;;;;4999230;28;20049;-81
2022/07/13 03:07:27;;;;;;;1.80;1.20;;;20.80;99.90;;;;;;4984036;28;20030;-81
2022/07/13 03:09:54;;;;;;;2.13;1.17;;;20.80;99.90;;;;;;4986581;28;20042;-81
2022/07/13 03:12:21;;;;;;;2.63;1.33;;;20.80;99.90;;;;;;4973065;28;20037;-80
2022/07/13 03:14:47;;;;;;;3.28;1.50;;;20.80;99.90;;;;;;4984821;28;20661;-80
2022/07/13 03:17:13;;;;;;;1.45;1.30;;;20.70;99.90;;;;;;4998994;28;20520;-81
2022/07/13 03:19:40;;;;;;;2.50;0.90;;;20.80;99.90;;;;;;4967996;28;20030;-81
2022/07/13 03:22:10;;;;;;;1.40;1.08;;;20.70;99.90;;;;;;4969580;28;20061;-81
2022/07/13 03:24:37;;;;;;;1.50;1.00;;;20.80;99.90;;;;;;4975204;28;20109;-81
2022/07/13 03:27:05;;;;;;;1.67;1.10;;;20.80;99.90;;;;;;4987052;28;20136;-81
2022/07/13 03:29:32;;;;;;;1.45;1.10;;;20.80;99.90;;;;;;4983798;28;20036;-80
2022/07/13 03:31:59;;;;;;;2.42;1.25;;;20.80;99.90;;;;;;4981946;28;20036;-81
2022/07/13 03:34:27;;;;;;;3.05;1.40;;;20.80;99.90;;;;;;5034678;28;20036;-80
2022/07/13 03:36:53;;;;;;;3.17;1.50;;;20.80;99.90;;;;;;4957848;28;20037;-81
2022/07/13 03:39:20;;;;;;;1.65;1.40;;;20.80;99.90;;;;;;4938350;28;20052;-80
2022/07/13 03:41:46;;;;;;;3.38;1.20;;;20.80;99.90;;;;;;4995294;28;20477;-80
2022/07/13 03:44:14;;;;;;;1.60;1.30;;;20.80;99.90;;;;;;4983999;28;20045;-80
2022/07/13 03:46:41;;;;;;;1.42;1.02;;;20.80;99.90;;;;;;5001152;28;20037;-81
2022/07/13 03:49:08;;;;;;;1.33;1.13;;;20.80;99.90;;;;;;4984540;28;20046;-81
2022/07/13 03:51:36;;;;;;;2.38;1.17;;;20.80;99.90;;;;;;4997285;28;20041;-81
2022/07/13 03:54:03;;;;;;;1.60;1.20;;;20.80;99.90;;;;;;5001982;28;20040;-81
2022/07/13 03:56:30;;;;;;;1.50;1.10;;;20.90;99.90;;;;;;4979255;28;20042;-82
2022/07/13 03:58:56;;;;;;;1.80;1.30;;;20.90;99.90;;;;;;5012212;28;20033;-80
2022/07/13 04:01:23;;;;;;;2.33;1.58;;;20.90;99.90;;;;;;5011305;28;20064;-81
2022/07/13 04:03:51;;;;;;;1.45;1.10;;;20.90;99.90;;;;;;5019657;28;20028;-81
2022/07/13 04:06:19;;;;;;;1.88;1.35;;;21.00;99.90;;;;;;4978285;28;20033;-80
2022/07/13 04:08:46;;;;;;;1.88;1.52;;;21.00;99.90;;;;;;4969342;28;20060;-81
2022/07/13 04:11:13;;;;;;;3.80;1.58;;;21.00;99.90;;;;;;4979006;28;20049;-81
2022/07/13 04:13:40;;;;;;;2.10;1.70;;;21.10;99.90;;;;;;5000762;28;20532;-81
2022/07/13 04:16:07;;;;;;;1.88;1.50;;;21.10;99.90;;;;;;4984296;28;20057;-81
2022/07/13 04:18:36;;;;;;;1.48;1.20;;;21.10;99.90;;;;;;4998615;28;20044;-81
2022/07/13 04:21:03;;;;;;;3.22;1.48;;;21.20;99.90;;;;;;4976706;28;20369;-80
2022/07/13 04:23:30;;;;;;;2.67;1.98;;;21.10;99.90;;;;;;4967555;28;20045;-81
2022/07/13 04:25:58;;;;;;;2.63;1.83;;;21.20;99.90;;;;;;4984607;28;20495;-81
2022/07/13 04:28:25;;;;;;;1.95;1.45;;;21.20;99.90;;;;;;4984254;28;20033;-81
2022/07/13 04:30:52;;;;;;;1.85;1.08;;;21.20;99.90;;;;;;4964128;28;20045;-80
2022/07/13 04:33:20;;;;;;;2.75;1.23;;;21.20;99.90;;;;;;4998857;28;20037;-83
2022/07/13 04:35:48;;;;;;;1.95;1.45;;;21.20;99.90;;;;;;4968162;28;20033;-80
2022/07/13 04:38:14;;;;;;;2.78;1.20;;;21.20;99.90;;;;;;4984267;28;20381;-76
2022/07/13 04:40:41;;;;;;;1.77;1.10;;;21.20;99.90;;;;;;4996355;28;20400;-77
2022/07/13 04:43:08;;;;;;;2.70;1.33;;;21.20;99.90;;;;;;4966538;28;20041;-81
2022/07/13 04:45:36;;;;;;;2.92;1.20;;;21.20;99.90;;;;;;4952946;28;21125;-82
2022/07/13 04:48:03;;;;;;;1.65;1.23;;;21.30;99.90;;;;;;4965003;28;20361;-76
2022/07/13 04:50:32;;;;;;;2.95;1.73;;;21.30;99.90;;;;;;4978576;28;20033;-76
2022/07/13 04:53:00;;;;;;;3.35;1.88;;;21.30;99.90;;;;;;4982653;28;20045;-75
2022/07/13 04:55:26;;;;;;;1.98;1.45;;;21.40;99.90;;;;;;4981504;28;20047;-76
2022/07/13 04:57:55;;;;;;;3.05;2.05;;;21.40;99.90;;;;;;4966447;28;20021;-75
2022/07/13 05:00:22;;;;;;;2.85;1.52;;;21.40;99.90;;;;;;4979919;28;20029;-75
2022/07/13 05:02:48;;;;;;;1.67;1.50;;;21.50;99.90;;;;;;4952865;28;20040;-76
2022/07/13 05:05:15;;;;;;;2.50;2.00;;;21.60;99.90;;;;;;4967222;28;20022;-75
2022/07/13 05:07:42;;;;;;;3.20;1.48;;;21.70;99.90;;;;;;5002620;28;20025;-75
2022/07/13 05:10:10;;;;;;;2.30;1.65;;;21.80;99.90;;;;;;4982261;28;20057;-75
2022/07/13 05:12:41;;;;;;;2.88;1.48;;;21.90;99.90;;;;;;4985658;28;20381;-75
2022/07/13 05:15:09;;;;;;;2.88;1.50;;;21.90;99.90;;;;;;4982963;28;20045;-75
2022/07/13 05:17:36;;;;;;;1.83;1.30;;;22.00;99.90;;;;;;4997872;28;20041;-75
2022/07/13 05:20:04;;;;;;;3.83;1.55;;;22.00;99.90;;;;;;4966191;28;20034;-76
2022/07/13 05:22:34;;;;;;;2.97;1.50;;;22.00;99.90;;;;;;4980041;28;20029;-75
2022/07/13 05:25:02;;;;;;;4.22;2.10;;;22.10;99.90;;;;;;4963897;28;20030;-76
2022/07/13 05:27:29;;;;;;;4.32;2.63;;;22.20;99.90;;;;;;4969116;28;20037;-76
2022/07/13 05:29:56;;;;;;;2.95;2.05;;;22.20;99.90;;;;;;4965978;28;20044;-79
2022/07/13 05:32:23;;;;;;;3.45;1.70;;;22.30;99.90;;;;;;4968037;28;20049;-80
2022/07/13 05:34:49;;;;;;;2.33;1.30;;;22.30;99.90;;;;;;5001361;28;20033;-80
2022/07/13 05:37:36;;;;;;;4.38;2.30;;;22.40;99.90;;;;;;4967916;28;20485;-80
2022/07/13 05:40:04;;;;;;;3.35;1.40;;;22.40;99.90;;;;;;4999259;28;20480;-80
2022/07/13 05:42:30;;;;;;;2.58;1.60;;;22.40;99.90;;;;;;5002475;28;20028;-80
2022/07/13 05:44:57;;;;;;;3.08;1.67;;;22.40;99.90;;;;;;4985912;28;20044;-80
2022/07/13 05:47:23;;;;;;;2.20;1.67;;;22.40;99.90;;;;;;4987328;28;20048;-76
2022/07/13 05:49:50;;;;;;;2.78;2.03;;;22.50;99.90;;;;;;4964855;28;20037;-75
2022/07/13 05:52:21;;;;;;;2.78;1.90;;;22.50;99.90;;;;;;4985574;28;20044;-75
2022/07/13 05:54:49;;;;;;;3.95;2.30;;;22.60;99.90;;;;;;4968824;28;20045;-76
2022/07/13 05:57:16;;;;;;;5.35;2.47;;;22.60;99.90;;;;;;4982834;28;20036;-76
2022/07/13 05:59:42;;;;;;;4.75;2.35;;;22.70;99.90;;;;;;4968483;28;20052;-76
2022/07/13 06:02:08;;;;;;;5.10;2.90;;;22.80;99.90;;;;;;4969616;28;20461;-76
2022/07/13 06:04:35;;;;;;;3.60;2.97;;;22.80;99.90;;;;;;5005291;28;20044;-76
2022/07/13 06:07:01;;;;;;;5.03;3.03;;;22.90;99.90;;;;;;4988148;28;20041;-76
2022/07/13 06:09:28;;;;;;;4.28;3.03;;;22.90;99.90;;;;;;5003824;28;20021;-76
2022/07/13 06:11:55;;;;;;;4.13;3.10;;;22.90;99.90;;;;;;4985717;28;20485;-76
2022/07/13 06:14:21;;;;;;;3.63;3.08;;;23.00;99.90;;;;;;5021604;28;20404;-76
2022/07/13 06:16:48;;;;;;;5.53;2.67;;;23.10;99.90;;;;;;4971007;28;20053;-75
2022/07/13 06:19:14;;;;;;;3.55;3.25;;;23.20;99.90;;;;;;5002788;28;20036;-76
2022/07/13 06:21:40;;;;;;;3.85;3.45;;;23.30;99.90;;;;;;4983983;28;20026;-76
2022/07/13 06:24:07;;;;;;;3.42;2.88;;;23.30;99.90;;;;;;5003598;28;20044;-76
2022/07/13 06:26:33;;;;;;;7.68;4.95;;;23.40;99.90;;;;;;5004233;28;20394;-76
2022/07/13 06:29:00;;;;;;;5.75;3.53;;;23.50;99.90;;;;;;4986177;28;20036;-76
2022/07/13 06:31:26;;;;;;;5.40;4.78;;;23.60;99.90;;;;;;4966500;28;20041;-76
2022/07/13 06:33:53;;;;;;;5.75;4.82;;;23.60;99.90;;;;;;5002828;28;20044;-76
2022/07/13 06:36:19;;;;;;;5.55;4.20;;;23.60;99.90;;;;;;5003164;28;20014;-76
2022/07/13 06:38:46;;;;;;;4.38;3.83;;;23.60;99.90;;;;;;4986330;28;20605;-76
2022/07/13 06:41:12;;;;;;;7.72;3.33;;;23.60;99.90;;;;;;4998728;28;20041;-76
2022/07/13 06:43:38;;;;;;;4.78;4.18;;;23.60;99.90;;;;;;4972378;28;20036;-76
2022/07/13 06:46:05;;;;;;;4.93;3.55;;;23.80;99.90;;;;;;4985374;28;20499;-76
2022/07/13 06:48:32;;;;;;;5.07;3.40;;;23.80;99.90;;;;;;5004377;28;20036;-76
2022/07/13 06:50:58;;;;;;;5.53;3.83;;;24.00;99.90;;;;;;4981677;28;20121;-76
2022/07/13 06:53:25;;;;;;;4.97;3.30;;;24.10;99.90;;;;;;4975138;28;20484;-76
2022/07/13 06:55:51;;;;;;;5.45;4.18;;;24.20;99.90;;;;;;4987475;28;20021;-76
2022/07/13 06:58:18;;;;;;;4.70;4.25;;;24.20;99.90;;;;;;5002841;28;20037;-76
2022/07/13 07:00:44;;;;;;;4.43;4.03;;;24.20;99.90;;;;;;5000430;28;20029;-75
2022/07/13 07:03:10;;;;;;;4.30;3.53;;;24.30;99.90;;;;;;4973491;28;20029;-75
2022/07/13 07:05:37;;;;;;;4.85;3.97;;;24.40;99.90;;;;;;5000928;28;20037;-75
2022/07/13 07:08:03;;;;;;;4.90;3.60;;;24.50;99.90;;;;;;4986584;28;20041;-75
2022/07/13 07:10:30;;;;;;;4.63;3.63;;;24.50;99.90;;;;;;4998130;28;20041;-75
2022/07/13 07:12:56;;;;;;;4.18;2.78;;;24.50;99.90;;;;;;4987789;28;20037;-75
2022/07/13 07:15:23;;;;;;;4.85;3.08;;;24.40;99.90;;;;;;4971872;28;20045;-75
2022/07/13 07:17:50;;;;;;;2.83;2.53;;;24.30;99.90;;;;;;5000756;28;20041;-75
2022/07/13 07:20:16;;;;;;;6.18;2.95;;;24.40;99.90;;;;;;4998591;28;22132;-75
2022/07/13 07:22:45;;;;;;;2.67;2.35;;;24.60;99.90;;;;;;5018666;28;20084;-75
2022/07/13 07:25:12;;;;;;;6.82;4.60;;;24.80;99.90;;;;;;5003598;28;20040;-79
2022/07/13 07:27:40;;;;;;;4.18;3.33;;;25.10;99.90;;;;;;4985625;28;20044;-79
2022/07/13 07:30:07;;;;;;;5.13;3.92;;;25.40;99.90;;;;;;4983086;28;20041;-78
2022/07/13 07:32:34;;;;;;;4.50;3.65;;;25.70;99.90;;;;;;5004809;28;20021;-79
2022/07/13 07:35:00;;;;;;;7.43;3.20;;;26.10;99.90;;;;;;4989168;28;20050;-79
2022/07/13 07:37:26;;;;;;;4.85;3.47;;;26.30;99.90;;;;;;4989408;28;20038;-75
2022/07/13 07:39:53;;;;;;;4.43;3.10;;;26.20;99.90;;;;;;4985134;28;20037;-74
2022/07/13 07:42:19;;;;;;;6.25;3.58;;;26.20;99.90;;;;;;5004660;28;20387;-79
2022/07/13 07:44:46;;;;;;;4.50;2.40;;;26.30;99.90;;;;;;4990036;28;20053;-79
2022/07/13 07:47:13;;;;;;;3.90;2.70;;;26.50;99.90;;;;;;4959649;28;20052;-79
2022/07/13 07:49:39;;;;;;;3.38;2.72;;;26.70;99.90;;;;;;5001412;28;20044;-79
2022/07/13 07:52:05;;;;;;;4.07;3.00;;;26.80;99.90;;;;;;5001584;28;20044;-75
2022/07/13 07:54:32;;;;;;;3.60;2.50;;;26.90;99.90;;;;;;4970306;28;20480;-76
2022/07/13 07:56:58;;;;;;;2.53;2.15;;;26.90;99.60;;;;;;4959484;28;20037;-76
2022/07/13 07:59:26;;;;;;;4.03;1.73;;;26.90;99.50;;;;;;5003632;28;21110;-75
2022/07/13 08:01:52;;;;;;;2.42;1.65;;;26.80;98.80;;;;;;5000355;28;20372;-80
2022/07/13 08:04:19;;;;;;;2.47;1.55;;;26.80;99.10;;;;;;4988790;28;20038;-79
2022/07/13 08:06:45;;;;;;;7.00;2.45;;;26.80;99.10;;;;;;5002959;28;21583;-80
2022/07/13 08:09:12;;;;;;;2.28;1.80;;;26.80;98.90;;;;;;5002993;28;20036;-80
2022/07/13 08:11:38;;;;;;;2.05;1.55;;;26.90;99.00;;;;;;4969163;28;20128;-76
2022/07/13 08:14:04;;;;;;;3.58;1.67;;;27.00;98.80;;;;;;5001303;28;20045;-76
2022/07/13 08:16:31;;;;;;;4.18;2.25;;;27.10;98.80;;;;;;4989019;28;20029;-76
2022/07/13 08:18:57;;;;;;;1.73;1.30;;;27.20;98.60;;;;;;4987278;28;20487;-76
2022/07/13 08:21:24;;;;;;;4.93;2.53;;;27.00;98.70;;;;;;4995871;28;20021;-75
2022/07/13 08:23:53;;;;;;;2.80;1.83;;;27.00;98.50;;;;;;5001306;28;20044;-76
2022/07/13 08:26:21;;;;;;;4.05;1.83;;;27.00;98.70;;;;;;4986902;28;20052;-76
2022/07/13 08:28:48;;;;;;;1.92;1.20;;;27.20;98.60;;;;;;4999570;28;20025;-80
2022/07/13 08:31:14;;;;;;;2.85;1.77;;;27.30;98.40;;;;;;4968768;28;20041;-82
2022/07/13 08:39:12;;;;;;;2.60;1.77;;;27.90;97.80;;;;;;5002770;28;20029;-81
2022/07/13 08:41:40;;;;;;;2.10;1.30;;;28.30;97.30;;;;;;5000252;28;20044;-79
2022/07/13 08:44:06;;;;;;;3.05;2.17;;;28.60;97.00;;;;;;4993642;28;20027;-80
2022/07/13 08:46:33;;;;;;;3.67;2.08;;;28.80;96.20;;;;;;5003917;28;20037;-80
2022/07/13 08:49:01;;;;;;;2.22;1.50;;;28.70;96.00;;;;;;5004728;28;20030;-80
2022/07/13 08:51:29;;;;;;;5.15;1.48;;;28.60;96.20;;;;;;5003752;28;20027;-80
2022/07/13 08:53:55;;;;;;;5.38;1.63;;;28.60;96.20;;;;;;4987711;28;20452;-81
2022/07/13 08:56:34;;;;;;;2.22;1.58;;;28.70;95.80;;;;;;5019817;28;20053;-82
2022/07/13 08:59:01;;;;;;;3.53;1.48;;;28.80;95.40;;;;;;4988362;28;20048;-82
2022/07/13 09:01:28;;;;;;;3.20;1.80;;;28.90;95.20;;;;;;5002043;28;20026;-82
2022/07/13 09:03:54;;;;;;;3.17;1.85;;;29.10;94.90;;;;;;5004372;28;20037;-82
2022/07/13 09:06:48;;;;;;;3.10;1.88;;;29.30;94.40;;;;;;4987703;28;20044;-83
2022/07/13 09:09:33;;;;;;;3.97;2.40;;;29.30;93.40;;;;;;4987106;28;20515;-83
2022/07/13 09:12:10;;;;;;;2.78;1.40;;;29.30;92.80;;;;;;5000352;28;20056;-83
2022/07/13 09:14:37;;;;;;;2.85;1.30;;;29.30;92.90;;;;;;5010660;28;20033;-81
2022/07/13 09:17:04;;;;;;;2.05;1.40;;;29.50;92.70;;;;;;5010997;28;20033;-80
2022/07/13 09:19:36;;;;;;;2.53;1.40;;;29.60;92.40;;;;;;5011774;28;20064;-81
2022/07/13 09:22:13;;;;;;;2.22;1.65;;;29.70;92.00;;;;;;5007292;28;20036;-79
2022/07/13 09:24:44;;;;;;;1.77;1.23;;;29.80;91.90;;;;;;4973095;28;20049;-82
2022/07/13 09:27:10;;;;;;;2.58;1.10;;;30.00;91.80;;;;;;5006004;28;20022;-80
2022/07/13 09:29:40;;;;;;;2.78;0.95;;;30.10;91.20;;;;;;4990501;28;21519;-81
2022/07/13 09:32:11;;;;;;;3.00;1.40;;;30.30;91.00;;;;;;4992352;28;20049;-80
2022/07/13 09:34:53;;;;;;;2.15;1.30;;;30.50;90.70;;;;;;4988121;28;20040;-76
2022/07/13 09:37:24;;;;;;;1.70;1.15;;;30.60;90.20;;;;;;5004137;28;20697;-76
2022/07/13 09:40:06;;;;;;;3.22;1.10;;;30.70;89.80;;;;;;5003609;28;20017;-76
2022/07/13 09:42:37;;;;;;;2.50;0.98;;;30.80;88.50;;;;;;5003081;28;20377;-76
2022/07/13 09:47:58;;;;;;;2.10;1.13;;;30.90;85.70;;;;;;5005152;28;20722;-77
2022/07/13 09:50:39;;;;;;;4.80;0.95;;;30.90;85.30;;;;;;4986666;28;20041;-75
2022/07/13 09:53:27;;;;;;;2.40;1.25;;;31.00;84.40;;;;;;4989853;28;20044;-75
2022/07/13 09:55:57;;;;;;;3.33;1.55;;;31.00;83.90;;;;;;5004127;28;20139;-76
2022/07/13 09:58:31;;;;;;;2.30;1.60;;;31.10;84.10;;;;;;5006786;28;20052;-75
2022/07/13 10:00:59;;;;;;;2.25;1.70;;;31.10;84.40;;;;;;5000117;28;20405;-75
2022/07/13 10:03:30;;;;;;;3.83;2.60;;;31.20;84.80;;;;;;4973036;28;21779;-75
2022/07/13 10:05:59;;;;;;;3.03;2.22;;;31.30;84.80;;;;;;5004911;28;20025;-75
2022/07/13 10:08:26;;;;;;;5.00;1.90;;;31.40;83.00;;;;;;4986690;28;20030;-76
2022/07/13 10:10:52;;;;;;;1.90;1.10;;;31.50;82.30;;;;;;5001225;28;20033;-80
2022/07/13 10:13:20;;;;;;;2.83;1.25;;;31.60;82.20;;;;;;4988056;28;20056;-80
2022/07/13 10:15:47;;;;;;;2.75;1.52;;;31.70;82.20;;;;;;5004225;28;20045;-81
2022/07/13 10:18:29;;;;;;;2.88;1.05;;;31.70;81.50;;;;;;5021742;28;20481;-81
2022/07/13 10:21:10;;;;;;;;;;;31.80;81.10;;;;;;5004944;28;20036;-81
2022/07/13 10:23:39;;;;;;;2.88;1.25;;;31.90;80.30;;;;;;4988969;28;19944;-80
2022/07/13 10:26:18;;;;;;;6.43;1.48;;;31.80;80.40;;;;;;4991019;28;20048;-80
2022/07/13 10:29:11;;;;;;;2.65;1.40;;;32.00;80.10;;;;;;5004941;28;20033;-82
2022/07/13 10:31:40;;;;;;;3.65;1.40;;;32.10;79.20;;;;;;4970701;28;20464;-81
2022/07/13 10:34:08;;;;;;;4.53;1.52;;;32.10;78.90;;;;;;4988992;28;20021;-81
2022/07/13 10:37:04;;;;;;;2.45;0.80;;;32.20;79.10;;;;;;4990707;28;20045;-81
2022/07/13 10:39:31;;;;;;;2.08;1.23;;;32.50;78.90;;;;;;4966867;28;20061;-81
2022/07/13 10:41:57;;;;;;;2.45;1.00;;;32.70;77.80;;;;;;4989569;28;20044;-81
2022/07/13 10:44:38;;;;;;;2.00;1.35;;;32.80;77.50;;;;;;4990482;28;20041;-83
2022/07/13 10:47:11;;;;;;;3.08;1.77;;;33.00;76.40;;;;;;4974182;28;20038;-80
2022/07/13 10:49:47;;;;;;;2.58;0.80;;;33.20;76.30;;;;;;4989341;28;20033;-83
2022/07/13 10:52:25;;;;;;;2.53;1.00;;;33.50;76.10;;;;;;4987800;28;20047;-81
2022/07/13 10:55:04;;;;;;;1.75;0.90;;;33.90;75.10;;;;;;5004985;28;20377;-83
2022/07/13 10:57:38;;;;;;;2.85;1.00;;;34.30;73.90;;;;;;4975177;28;20041;-83
2022/07/13 11:00:19;;;;;;;3.10;1.80;;;34.50;72.30;;;;;;5002581;28;20036;-81
2022/07/13 11:03:16;;;;;;;2.88;0.82;;;34.70;70.20;;;;;;5005603;28;20047;-82
2022/07/13 11:06:03;;;;;;;2.15;1.48;;;34.60;69.60;;;;;;5006979;28;20056;-81
2022/07/13 11:08:30;;;;;;;2.58;1.30;;;34.60;69.60;;;;;;4970831;28;20040;-77
2022/07/13 11:11:17;;;;;;;2.20;1.20;;;34.60;70.00;;;;;;4984853;28;20036;-78
2022/07/13 11:13:49;;;;;;;1.33;0.90;;;34.70;69.60;;;;;;4989726;28;20018;-78
2022/07/13 11:16:45;;;;;;;1.67;0.95;;;34.70;69.40;;;;;;5007878;28;20061;-77
2022/07/13 11:19:15;;;;;;;2.17;1.10;;;34.90;69.50;;;;;;4988334;28;20048;-80
2022/07/13 11:22:18;;;;;;;1.80;1.00;;;35.00;69.10;;;;;;5002127;28;20048;-79
2022/07/13 11:25:13;;;;;;;5.28;0.90;;;35.20;68.60;;;;;;4984754;28;20064;-83
2022/07/13 11:27:54;;;;;;;2.40;0.90;;;35.30;68.30;;;;;;5022987;28;20080;-77
2022/07/13 11:30:27;;;;;;;4.10;1.23;;;35.50;66.90;;;;;;5001634;28;20036;-79
2022/07/13 11:32:54;;;;;;;1.45;0.70;;;35.50;64.60;;;;;;5003213;28;20044;-79
2022/07/13 11:35:21;;;;;;;1.55;0.80;;;35.50;63.90;;;;;;5003498;28;20041;-78
2022/07/13 11:37:48;;;;;;;1.60;0.70;;;35.60;63.60;;;;;;5002815;28;20036;-78
2022/07/13 11:40:31;;;;;;;2.08;0.82;;;35.50;63.30;;;;;;5001892;28;20031;-77
2022/07/13 11:43:00;;;;;;;1.27;0.60;;;35.60;62.30;;;;;;5005406;28;20033;-78
2022/07/13 11:45:30;;;;;;;0.80;0.50;;;35.70;62.20;;;;;;5005316;28;20033;-78
2022/07/13 11:48:25;;;;;;;2.60;0.77;;;36.00;60.40;;;;;;5004872;28;20370;-79
2022/07/13 11:51:08;;;;;;;0.50;0.32;;;36.10;56.40;;;;;;4978983;28;20030;-82
2022/07/13 11:53:37;;;;;;;1.90;0.45;;;35.70;55.30;;;;;;4989404;28;20428;-82
2022/07/13 11:56:06;;;;;;;0.80;0.40;;;35.70;55.90;;;;;;5004606;28;20032;-84
2022/07/13 11:58:39;;;;;;;0.55;0.30;;;35.90;55.50;;;;;;5004885;28;20049;-82
2022/07/13 12:01:11;;;;;;;0.70;0.30;;;35.80;54.20;;;;;;4987254;28;20052;-78
2022/07/13 12:03:38;;;;;;;1.02;0.40;;;35.60;54.00;;;;;;5002243;28;20382;-78
2022/07/13 12:06:07;;;;;;;1.15;0.60;;;35.40;54.10;;;;;;5002186;28;20057;-78
2022/07/13 12:08:38;;;;;;;1.60;0.55;;;35.20;54.10;;;;;;4971198;28;20048;-78
2022/07/13 12:11:08;;;;;;;3.00;0.50;;;34.90;54.20;;;;;;4965242;28;20026;-78
2022/07/13 12:13:36;;;;;;;1.23;0.40;;;34.70;53.60;;;;;;4988074;28;20052;-78
2022/07/13 12:16:04;;;;;;;1.52;0.60;;;34.50;54.50;;;;;;4987294;28;20051;-79
2022/07/13 12:18:51;;;;;;;1.35;0.40;;;34.80;53.90;;;;;;5004949;28;20198;-79
2022/07/13 12:21:18;;;;;;;1.75;0.45;;;35.50;53.70;;;;;;4985128;28;20132;-79
2022/07/13 12:23:48;;;;;;;1.38;0.52;;;36.40;52.80;;;;;;4986323;28;20038;-78
2022/07/13 12:26:15;;;;;;;1.58;0.50;;;37.20;51.50;;;;;;4985842;28;20060;-78
2022/07/13 12:28:42;;;;;;;1.08;0.40;;;37.90;50.70;;;;;;5001656;28;20357;-79
2022/07/13 12:31:09;;;;;;;1.38;0.50;;;38.30;49.50;;;;;;4981162;28;20022;-79
2022/07/13 12:33:47;;;;;;;1.27;0.47;;;38.50;48.60;;;;;;4986852;28;20745;-79
2022/07/13 12:36:15;;;;;;;1.05;0.40;;;38.90;47.40;;;;;;4999686;28;20044;-78
2022/07/13 12:38:57;;;;;;;1.52;0.50;;;39.00;47.60;;;;;;4969258;28;20396;-77
2022/07/13 12:41:40;;;;;;;1.65;0.50;;;39.00;47.60;;;;;;4982481;28;20033;-77
2022/07/13 12:44:10;;;;;;;1.58;0.50;;;39.00;47.80;;;;;;4986296;28;20040;-78
2022/07/13 12:46:47;;;;;;;3.83;3.53;;;39.40;47.10;;;;;;5002023;28;20037;-76
2022/07/13 12:49:14;;;;;;;2.05;0.60;;;39.70;46.80;;;;;;4968362;28;20033;-77
2022/07/13 12:51:45;;;;;;;2.85;0.60;;;39.90;45.80;;;;;;4982355;28;20033;-77
2022/07/13 12:54:12;;;;;;;1.30;0.40;;;39.30;46.00;;;;;;5003269;28;20032;-76
2022/07/13 12:56:50;;;;;;;2.07;0.40;;;38.50;46.60;;;;;;4985471;28;20034;-77
2022/07/13 12:59:19;;;;;;;1.73;0.50;;;38.60;46.50;;;;;;5000676;28;20280;-78
2022/07/13 13:01:47;;;;;;;3.40;0.47;;;39.00;46.30;;;;;;4983965;28;20333;-77
2022/07/13 13:04:17;;;;;;;2.33;0.50;;;39.60;45.90;;;;;;5014513;28;20041;-77